INFORMACIÓN METAR y TAF
METAR FOR CYGR
ADDS - METARS form results

(0935 UTC 25 August 2019)
Data provider http://aviationweather.gov/metar/data/
 
METAR text: CYGR 250900Z 03004KT 20SM FEW030 11/07 A3037 RMK SC1 SC TR SLP285
Conditions at: CYGR (ILES DE LA MADEL, QC, CA) observed 0900 UTC 25 August 2019
Temperature: 11.0°C (52°F)
Dewpoint: 7.0°C (45°F) [RH = 76%]
Pressure (altimeter): 30.37 inches Hg (1028.5 mb)
[Sea-level pressure: 1028.5 mb]
Winds: from the NNE (30 degrees) at 5 MPH (4 knots; 2.1 m/s)
Visibility: 20 miles (32 km)
Ceiling: at least 12,000 feet AGL
Clouds: few clouds at 3000 feet AGL
Weather: no significant weather observed at this time

 MAPA DE AEROPUERTO

 INFORMACIÓN DE PISTA
Pista 07 Longitud 4500 ft Ancho 150 ft
Elevación 22 ft Umbral desplazado 0 ft Rumbo de pista 53
Pista 25 Longitud 4500 ft Ancho 150 ft
Elevación 12 ft Umbral desplazado 0 ft Rumbo de pista 233
Pista 16 Longitud 3600 ft Ancho 150 ft
Elevación 9 ft Umbral desplazado 0 ft Rumbo de pista 139
Pista 34 Longitud 3600 ft Ancho 150 ft
Elevación 35 ft Umbral desplazado 0 ft Rumbo de pista 319

 FRECUANCIAS DEL AEROPUERTO
Tipo CNTR Nombre MONCTON CN Frecuencia 134.35 MHZ
Tipo FSS Nombre MADELEINE Frecuencia 123.15 MHZ
Tipo RCO Nombre QUEBEC RDO Frecuencia 126.7 MHZ
Tipo RDO Nombre MF Frecuencia 123.15 MHZ

 RADIO AYUDAS DEL AEROPUERTO
Tipo NDB Nombre Grindstone Frecuencia 370 KHZ
Tipo VOR-DME Nombre Grindstone Frecuencia 112000 KHZ



Powered by Virtual Airlines Manager [v2.6.2]